• Join FlightAware (Why Join?)
  • Login
  • US Flag 
12:27PM EDT


 

Airport Tracker/Info


-or-


 

Live Flight TrackerFlight Track Log ✈ HAL45 ✈ 22-Apr-2013 ✈ KSJC - PHOG / OGG

Flight Track Log - Related Links

Times and Time Zones

All times are in EDT time to prevent confusion due to time zone crossing. See the HAL45 flight status page for this flight to view local times or setup timezone preferences in your user account.

Time Position Orientation Groundspeed Altitude Reporting Facility
EDT Latitude Longitude Course Direction KTS MPH feet Rate Location/Type
11:11AM 37.3830 -121.9490 319° Northwest 179 206 1,000  Level FlightAware
11:12AM 37.4130 -121.9850 316° Northwest 231 266 2,300 2,280 Climbing FlightAware
11:12AM 37.4230 -122.0260 287° West 264 304 3,700 2,580 Climbing FlightAware
11:13AM 37.4200 -122.0640 264° West 266 306 4,700 1,380 Climbing FlightAware
11:13AM 37.4140 -122.1090 260° West 267 307 5,000 300 Climbing FlightAware
11:14AM 37.4080 -122.1480 259° West 265 305 5,000  Level FlightAware
11:14AM 37.4060 -122.1690 263° West 264 304 5,000  Level FlightAware
11:14AM 37.4010 -122.2030 260° West 264 304 5,000  Level FlightAware
11:15AM 37.3960 -122.2480 262° West 267 307 5,000 780 Level FlightAware
11:15AM 37.3880 -122.2990 259° West 274 315 5,800 2,160 Climbing FlightAware
11:16AM 37.3830 -122.3400 261° West 283 326 7,000 2,760 Climbing FlightAware
11:16AM 37.3790 -122.3700 260° West 291 335 7,900 2,700 Climbing FlightAware
11:17AM 37.3660 -122.4640 260° West 317 365 10,400 1,920 Climbing FlightAware
11:18AM 37.3570 -122.5440 262° West 374 430 11,000 2,040 Climbing FlightAware
11:18AM 37.3470 -122.6150 260° West 372 428 13,000 3,000 Climbing FlightAware
11:19AM 37.3310 -122.7370 261° West 391 450 15,300 1,560 Climbing FlightAware
11:20AM 37.3220 -122.8080 261° West 391 450 15,400 2,580 Climbing FlightAware
11:20AM 37.3050 -122.9200 259° West 404 465 18,800 2,760 Climbing FlightAware
11:21AM 37.2860 -123.0220 257° West 404 465 19,600 480 Climbing FlightAware
11:22AM 37.2680 -123.1190 257° West 404 465 19,600  Level FlightAware
11:23AM 37.2540 -123.1970 257° West 404 465 19,600 2,820 Level FlightAware
11:23AM 37.2270 -123.3320 256° West 24,500 4,200 Climbing FlightAware
11:24AM 37.2078 -123.4328 256° West 442 509 25,200 1,440 Climbing Oakland Center
11:25AM 37.1753 -123.5889 255° West 459 528 27,100 1,680 Climbing Oakland Center
11:26AM 37.1461 -123.7447 257° West 461 531 28,700 1,680 Climbing Oakland Center
11:27AM 37.1147 -123.9022 256° West 466 536 30,600 1,980 Climbing Oakland Center
11:28AM 37.0831 -124.0556 256° West 460 529 32,800 1,620 Climbing Oakland Center
11:29AM 37.0472 -124.2350 256° West 445 512 33,900 540 Climbing Oakland Center
11:30AM 37.0175 -124.3842 256° West 443 510 34,000  Climbing Oakland Center
11:31AM 36.9858 -124.5347 255° West 448 516 34,000  Level Oakland Center
11:32AM 36.9539 -124.6864 255° West 452 520 34,000  Level Oakland Center
11:33AM 36.9231 -124.8367 256° West 449 517 34,000  Level Oakland Center
11:34AM 36.8919 -124.9900 256° West 453 521 34,000  Level Oakland Center
11:35AM 36.8594 -125.1403 255° West 452 520 34,000  Level Oakland Center
11:36AM 36.8289 -125.2906 256° West 450 518 34,000  Level Oakland Center
11:37AM 36.7969 -125.4400 255° West 447 514 34,000  Level Oakland Center
11:38AM 36.7636 -125.5878 254° West 445 512 34,000  Level Oakland Center
11:39AM 36.7253 -125.7669 255° West 446 513 34,000  Level Oakland Center
11:40AM 36.6936 -125.9158 255° West 446 513 34,000  Level Oakland Center
11:41AM 36.6608 -126.0644 255° West 445 512 34,000  Level Oakland Center
11:42AM 36.6275 -126.2139 255° West 447 514 34,000  Level Oakland Center
11:43AM 36.5950 -126.3636 255° West 448 516 34,000  Level Oakland Center
11:44AM 36.5622 -126.5131 255° West 449 517 34,000  Level Oakland Center
11:45AM 36.5303 -126.6636 255° West 450 518 34,000  Level Oakland Center
11:46AM 36.4947 -126.8131 254° West 451 519 34,000  Level Oakland Center
11:47AM 36.4667 -126.9333 250° West 460 529 34,000  Level Oakland Oceanic (ODAPS)
11:51AM 36.3000 -127.4833 250° West 463 533 34,000  Level Oakland Oceanic (ODAPS)
11:54AM 36.2024 -127.8290 250° West 460 529 34,000  Level FlightAware Transoceanic
11:55AM 36.1577 -127.9778 250° West 460 529 34,000  Level FlightAware Transoceanic
11:56AM 36.1128 -128.1263 249° West 460 529 34,000  Level FlightAware Transoceanic
11:57AM 36.0305 -128.3813 249° West 463 533 34,000  Level FlightAware Transoceanic
11:58AM 35.9849 -128.5304 249° West 463 533 34,000  Level FlightAware Transoceanic
11:59AM 35.9392 -128.6793 249° West 463 533 34,000  Level FlightAware Transoceanic
12:00PM 35.8932 -128.8280 249° West 463 533 34,000  Level FlightAware Transoceanic
12:01PM 35.8471 -128.9765 249° West 463 533 34,000  Level FlightAware Transoceanic
12:02PM 35.8008 -129.1249 249° West 463 533 34,000  Level FlightAware Transoceanic
12:03PM 35.7543 -129.2731 249° West 463 533 34,000  Level FlightAware Transoceanic
12:04PM 35.7076 -129.4211 249° West 463 533 34,000  Level FlightAware Transoceanic
12:05PM 35.6608 -129.5690 249° West 463 533 34,000  Level FlightAware Transoceanic
12:05PM 35.6667 -129.5500 249° West 470 541 34,000  Level Oakland Oceanic (ODAPS)
12:06PM 35.6138 -129.7167 249° West 463 533 34,000  Level FlightAware Transoceanic
12:07PM 35.5666 -129.8642 248° West 463 533 34,000  Level FlightAware Transoceanic
12:08PM 35.5192 -130.0115 248° West 463 533 34,000  Level FlightAware Transoceanic
12:09PM 35.4716 -130.1587 248° West 463 533 34,000  Level FlightAware Transoceanic
12:10PM 35.4239 -130.3056 248° West 463 533 34,000  Level FlightAware Transoceanic
12:11PM 35.3809 -130.4370 248° West 470 541 34,000  Level FlightAware Transoceanic
12:12PM 35.3326 -130.5842 248° West 470 541 34,000  Level FlightAware Transoceanic
12:13PM 35.2841 -130.7313 248° West 470 541 34,000  Level FlightAware Transoceanic
12:14PM 35.2355 -130.8782 248° West 470 541 34,000  Level FlightAware Transoceanic
12:15PM 35.1867 -131.0249 248° West 470 541 34,000  Level FlightAware Transoceanic
12:16PM 35.1377 -131.1714 248° West 470 541 34,000  Level FlightAware Transoceanic
12:17PM 35.0886 -131.3177 248° West 470 541 34,000  Level FlightAware Transoceanic
12:18PM 35.0393 -131.4639 248° West 470 541 34,000  Level FlightAware Transoceanic
12:19PM 34.9898 -131.6099 247° West 470 541 34,000  Level FlightAware Transoceanic
12:19PM 35.0000 -131.6000 247° West 475 547 34,000  Level Oakland Oceanic (ODAPS)
12:20PM 34.9401 -131.7557 247° West 470 541 34,000  Level FlightAware Transoceanic
12:21PM 34.8902 -131.9013 247° West 470 541 34,000  Level FlightAware Transoceanic
12:22PM 34.8402 -132.0468 247° West 470 541 34,000  Level FlightAware Transoceanic
12:23PM 34.7900 -132.1921 247° West 470 541 34,000  Level FlightAware Transoceanic
12:24PM 34.7396 -132.3372 247° West 470 541 34,000  Level FlightAware Transoceanic
12:25PM 34.6962 -132.4754 247° West 475 547 34,000  Level FlightAware Transoceanic
12:26PM 34.6449 -132.6207 247° West 475 547 34,000  Level FlightAware Transoceanic
12:27PM 34.5935 -132.7658 247° West 475 547 34,000  Level FlightAware Transoceanic
12:28PM 34.5419 -132.9107 247° West 475 547 34,000  Level FlightAware Transoceanic
12:29PM 34.4901 -133.0555 246° West 475 547 34,000  Level FlightAware Transoceanic
12:30PM 34.4382 -133.2000 246° West 475 547 34,000  Level FlightAware Transoceanic
12:31PM 34.3861 -133.3444 246° West 475 547 34,000  Level FlightAware Transoceanic
12:32PM 34.3338 -133.4886 246° West 475 547 34,000  Level FlightAware Transoceanic
12:33PM 34.2814 -133.6326 246° West 475 547 34,000  Level FlightAware Transoceanic
12:33PM 34.2833 -133.6500 245° Southwest 471 542 34,000  Level Oakland Oceanic (ODAPS)
12:34PM 34.2288 -133.7764 246° West 475 547 34,000  Level FlightAware Transoceanic
12:35PM 34.1760 -133.9201 246° West 475 547 34,000  Level FlightAware Transoceanic
12:36PM 34.1231 -134.0636 246° West 475 547 34,000  Level FlightAware Transoceanic
12:37PM 34.0699 -134.2069 246° West 475 547 34,000  Level FlightAware Transoceanic
12:37PM 34.0167 -134.3500 246° West 460 529 34,000  Level Oakland Oceanic (ODAPS)
12:38PM 34.0167 -134.3500 246° West 475 547 34,000  Level FlightAware Transoceanic
12:39PM 33.9659 -134.4875 246° West 475 547 34,000  Level FlightAware Transoceanic
12:40PM 33.9149 -134.6248 246° West 471 542 34,000  Level FlightAware Transoceanic
12:41PM 33.8638 -134.7620 246° West 471 542 34,000  Level FlightAware Transoceanic
12:42PM 33.8126 -134.8990 246° West 471 542 34,000  Level FlightAware Transoceanic
12:43PM 33.7612 -135.0358 246° West 471 542 34,000  Level FlightAware Transoceanic
12:44PM 33.7035 -135.1886 246° West 460 529 34,000  Level FlightAware Transoceanic
12:45PM 33.6508 -135.3277 245° Southwest 460 529 34,000  Level FlightAware Transoceanic
12:46PM 33.5979 -135.4667 245° Southwest 460 529 34,000  Level FlightAware Transoceanic
12:46PM 33.5333 -135.6333 245° Southwest 452 520 34,000  Level Oakland Oceanic (ODAPS)
12:47PM 33.5449 -135.6055 245° Southwest 460 529 34,000  Level FlightAware Transoceanic
12:48PM 33.4917 -135.7442 245° Southwest 460 529 34,000  Level FlightAware Transoceanic
12:49PM 33.4383 -135.8827 245° Southwest 460 529 34,000  Level FlightAware Transoceanic
12:50PM 33.3848 -136.0210 245° Southwest 460 529 34,000  Level FlightAware Transoceanic
12:51PM 33.3312 -136.1591 245° Southwest 460 529 34,000  Level FlightAware Transoceanic
12:52PM 33.2773 -136.2971 245° Southwest 460 529 34,000  Level FlightAware Transoceanic
12:53PM 33.2133 -136.4585 245° Southwest 452 520 34,000  Level FlightAware Transoceanic
12:54PM 33.1595 -136.5955 245° Southwest 452 520 34,000  Level FlightAware Transoceanic
12:55PM 33.1054 -136.7323 245° Southwest 452 520 34,000  Level FlightAware Transoceanic
12:56PM 33.0513 -136.8689 245° Southwest 452 520 34,000  Level FlightAware Transoceanic
12:57PM 32.9969 -137.0053 245° Southwest 452 520 34,000  Level FlightAware Transoceanic
12:58PM 32.9425 -137.1416 244° Southwest 452 520 34,000  Level FlightAware Transoceanic
12:59PM 32.8879 -137.2777 244° Southwest 452 520 34,000  Level FlightAware Transoceanic
01:00PM 32.8331 -137.4136 244° Southwest 452 520 34,000  Level FlightAware Transoceanic
01:00PM 32.7667 -137.6000 244° Southwest 454 522 34,000  Level Oakland Oceanic (ODAPS)
01:01PM 32.7782 -137.5494 244° Southwest 452 520 34,000  Level FlightAware Transoceanic
01:02PM 32.7232 -137.6850 244° Southwest 452 520 34,000  Level FlightAware Transoceanic
01:03PM 32.6680 -137.8204 244° Southwest 452 520 34,000  Level FlightAware Transoceanic
01:04PM 32.6126 -137.9557 244° Southwest 452 520 34,000  Level FlightAware Transoceanic
01:05PM 32.5572 -138.0908 244° Southwest 452 520 34,000  Level FlightAware Transoceanic
01:06PM 32.5015 -138.2257 244° Southwest 452 520 34,000  Level FlightAware Transoceanic
01:07PM 32.4241 -138.4295 244° Southwest 454 522 34,000  Level FlightAware Transoceanic
01:08PM 32.3665 -138.5672 244° Southwest 454 522 34,000  Level FlightAware Transoceanic
01:09PM 32.3087 -138.7046 244° Southwest 454 522 34,000  Level FlightAware Transoceanic
01:10PM 32.2508 -138.8419 243° Southwest 454 522 34,000  Level FlightAware Transoceanic
01:11PM 32.1927 -138.9790 243° Southwest 454 522 34,000  Level FlightAware Transoceanic
01:12PM 32.1345 -139.1160 243° Southwest 454 522 34,000  Level FlightAware Transoceanic
01:13PM 32.0761 -139.2527 243° Southwest 454 522 34,000  Level FlightAware Transoceanic
01:14PM 32.0176 -139.3893 243° Southwest 454 522 34,000  Level FlightAware Transoceanic
01:14PM 31.9833 -139.4500 243° Southwest 444 511 34,000  Level Oakland Oceanic (ODAPS)
01:15PM 31.9590 -139.5257 243° Southwest 454 522 34,000  Level FlightAware Transoceanic
01:16PM 31.9002 -139.6620 243° Southwest 454 522 34,000  Level FlightAware Transoceanic
01:17PM 31.8412 -139.7980 243° Southwest 454 522 34,000  Level FlightAware Transoceanic
01:18PM 31.7821 -139.9339 243° Southwest 454 522 34,000  Level FlightAware Transoceanic
01:19PM 31.7229 -140.0697 243° Southwest 454 522 34,000  Level FlightAware Transoceanic
01:20PM 31.6635 -140.2052 243° Southwest 454 522 34,000  Level FlightAware Transoceanic
01:21PM 31.6437 -140.2396 243° Southwest 444 511 34,000  Level FlightAware Transoceanic
01:22PM 31.5866 -140.3706 243° Southwest 444 511 34,000  Level FlightAware Transoceanic
01:23PM 31.5294 -140.5015 243° Southwest 444 511 34,000  Level FlightAware Transoceanic
01:24PM 31.4720 -140.6322 243° Southwest 444 511 34,000  Level FlightAware Transoceanic
01:25PM 31.4146 -140.7627 243° Southwest 444 511 34,000  Level FlightAware Transoceanic
01:26PM 31.3570 -140.8931 243° Southwest 444 511 34,000  Level FlightAware Transoceanic
01:27PM 31.2992 -141.0233 243° Southwest 444 511 34,000  Level FlightAware Transoceanic
01:28PM 31.2413 -141.1534 242° Southwest 444 511 34,000  Level FlightAware Transoceanic
01:28PM 31.2167 -141.2167 240° Southwest 426 490 34,000  Level Oakland Oceanic (ODAPS)
01:29PM 31.1833 -141.2833 242° Southwest 444 511 34,000  Level FlightAware Transoceanic
01:29PM 31.1833 -141.2833 242° Southwest 426 490 34,000  Level Oakland Oceanic (ODAPS)
01:30PM 31.1287 -141.4044 242° Southwest 444 511 34,000  Level FlightAware Transoceanic
01:31PM 31.0740 -141.5253 242° Southwest 444 511 34,000  Level FlightAware Transoceanic
01:32PM 31.0191 -141.6461 242° Southwest 444 511 34,000  Level FlightAware Transoceanic
01:33PM 30.9642 -141.7667 242° Southwest 444 511 34,000  Level FlightAware Transoceanic
01:34PM 30.9091 -141.8872 242° Southwest 444 511 34,000  Level FlightAware Transoceanic
01:35PM 30.8480 -142.0204 242° Southwest 426 490 34,000  Level FlightAware Transoceanic
01:36PM 30.7917 -142.1428 242° Southwest 426 490 34,000  Level FlightAware Transoceanic
01:37PM 30.7353 -142.2650 242° Southwest 426 490 34,000  Level FlightAware Transoceanic
01:38PM 30.6787 -142.3871 242° Southwest 426 490 34,000  Level FlightAware Transoceanic
01:39PM 30.6221 -142.5090 242° Southwest 426 490 34,000  Level FlightAware Transoceanic
01:40PM 30.5653 -142.6308 242° Southwest 426 490 34,000  Level FlightAware Transoceanic
01:41PM 30.5085 -142.7524 241° Southwest 426 490 34,000  Level FlightAware Transoceanic
01:42PM 30.4515 -142.8739 241° Southwest 426 490 34,000 1,380 Level FlightAware Transoceanic
01:42PM 30.4500 -142.8833 241° Southwest 409 471 36,000  Climbing Oakland Oceanic (ODAPS)
01:43PM 30.3944 -142.9952 241° Southwest 426 490 34,000 -1,260 Descending FlightAware Transoceanic
01:44PM 30.3372 -143.1165 241° Southwest 426 490 34,000  Level FlightAware Transoceanic
01:45PM 30.2799 -143.2375 241° Southwest 426 490 34,000  Level FlightAware Transoceanic
01:46PM 30.2225 -143.3584 241° Southwest 426 490 34,000  Level FlightAware Transoceanic
01:47PM 30.1649 -143.4792 241° Southwest 426 490 34,000 960 Level FlightAware Transoceanic
01:48PM 30.1213 -143.5759 241° Southwest 409 471 36,000 960 Climbing FlightAware Transoceanic
01:49PM 30.0662 -143.6908 241° Southwest 409 471 36,000  Level FlightAware Transoceanic
01:50PM 30.0109 -143.8057 241° Southwest 409 471 36,000  Level FlightAware Transoceanic
01:51PM 29.9556 -143.9204 241° Southwest 409 471 36,000  Level FlightAware Transoceanic
01:52PM 29.9002 -144.0350 241° Southwest 409 471 36,000  Level FlightAware Transoceanic
01:53PM 29.8446 -144.1494 241° Southwest 409 471 36,000  Level FlightAware Transoceanic
01:54PM 29.7890 -144.2638 241° Southwest 409 471 36,000  Level FlightAware Transoceanic
01:55PM 29.7333 -144.3780 241° Southwest 409 471 36,000  Level FlightAware Transoceanic
01:56PM 29.6775 -144.4920 241° Southwest 409 471 36,000  Level FlightAware Transoceanic
01:56PM 29.6833 -144.4667 241° Southwest 407 468 36,000  Level Oakland Oceanic (ODAPS)
01:57PM 29.6215 -144.6060 241° Southwest 409 471 36,000  Level FlightAware Transoceanic
01:58PM 29.5655 -144.7198 240° Southwest 409 471 36,000  Level FlightAware Transoceanic
01:59PM 29.5094 -144.8335 240° Southwest 409 471 36,000  Level FlightAware Transoceanic
02:00PM 29.4532 -144.9471 240° Southwest 409 471 36,000  Level FlightAware Transoceanic
02:01PM 29.3969 -145.0605 240° Southwest 409 471 36,000  Level FlightAware Transoceanic
02:02PM 29.3453 -145.1535 240° Southwest 407 468 36,000  Level FlightAware Transoceanic
02:03PM 29.2886 -145.2675 240° Southwest 407 468 36,000  Level FlightAware Transoceanic
02:04PM 29.2318 -145.3814 240° Southwest 407 468 36,000  Level FlightAware Transoceanic
02:05PM 29.1750 -145.4952 240° Southwest 407 468 36,000  Level FlightAware Transoceanic
02:06PM 29.1180 -145.6088 240° Southwest 407 468 36,000  Level FlightAware Transoceanic
02:07PM 29.0609 -145.7224 240° Southwest 407 468 36,000  Level FlightAware Transoceanic
02:08PM 29.0038 -145.8358 240° Southwest 407 468 36,000  Level FlightAware Transoceanic
02:09PM 28.9465 -145.9490 240° Southwest 407 468 36,000  Level FlightAware Transoceanic
02:10PM 28.8892 -146.0622 240° Southwest 407 468 36,000  Level FlightAware Transoceanic
02:10PM 28.9000 -146.0333 240° Southwest 405 466 36,000  Level Oakland Oceanic (ODAPS)
02:11PM 28.8317 -146.1752 240° Southwest 407 468 36,000  Level FlightAware Transoceanic
02:12PM 28.7742 -146.2881 240° Southwest 407 468 36,000  Level FlightAware Transoceanic
02:13PM 28.7165 -146.4008 240° Southwest 407 468 36,000  Level FlightAware Transoceanic
02:14PM 28.6588 -146.5135 240° Southwest 407 468 36,000  Level FlightAware Transoceanic
02:15PM 28.6010 -146.6260 240° Southwest 407 468 36,000  Level FlightAware Transoceanic
02:16PM 28.5697 -146.6818 240° Southwest 405 466 36,000  Level FlightAware Transoceanic
02:17PM 28.5144 -146.7895 240° Southwest 405 466 36,000  Level FlightAware Transoceanic
02:18PM 28.4589 -146.8971 240° Southwest 405 466 36,000  Level FlightAware Transoceanic
02:19PM 28.4034 -147.0046 240° Southwest 405 466 36,000  Level FlightAware Transoceanic
02:20PM 28.3478 -147.1119 239° Southwest 405 466 36,000  Level FlightAware Transoceanic
02:21PM 28.2921 -147.2191 239° Southwest 405 466 36,000  Level FlightAware Transoceanic
02:22PM 28.2364 -147.3263 239° Southwest 405 466 36,000  Level FlightAware Transoceanic
02:23PM 28.1805 -147.4333 239° Southwest 405 466 36,000  Level FlightAware Transoceanic
02:24PM 28.1246 -147.5402 239° Southwest 405 466 36,000  Level FlightAware Transoceanic
02:24PM 28.1000 -147.5667 241° Southwest 402 463 36,000  Level Oakland Oceanic (ODAPS)
02:25PM 28.0686 -147.6470 239° Southwest 405 466 36,000  Level FlightAware Transoceanic
02:26PM 28.0124 -147.7536 239° Southwest 405 466 36,000  Level FlightAware Transoceanic
02:27PM 27.9563 -147.8602 239° Southwest 405 466 36,000  Level FlightAware Transoceanic
02:27PM 27.9000 -147.9667 239° Southwest 397 457 36,000  Level Oakland Oceanic (ODAPS)
02:28PM 27.9000 -147.9667 239° Southwest 405 466 36,000  Level FlightAware Transoceanic
02:29PM 27.8423 -148.0746 239° Southwest 405 466 36,000  Level FlightAware Transoceanic
02:30PM 27.7845 -148.1825 239° Southwest 402 463 36,000  Level FlightAware Transoceanic
02:31PM 27.7267 -148.2902 239° Southwest 402 463 36,000  Level FlightAware Transoceanic
02:32PM 27.6688 -148.3978 239° Southwest 402 463 36,000  Level FlightAware Transoceanic
02:33PM 27.6107 -148.5054 239° Southwest 402 463 36,000  Level FlightAware Transoceanic
02:34PM 27.5526 -148.6128 239° Southwest 397 457 36,000  Level FlightAware Transoceanic
02:35PM 27.4944 -148.7200 239° Southwest 397 457 36,000  Level FlightAware Transoceanic
02:36PM 27.4362 -148.8272 238° Southwest 397 457 36,000  Level FlightAware Transoceanic
02:37PM 27.3778 -148.9343 238° Southwest 397 457 36,000  Level FlightAware Transoceanic
02:37PM 27.3167 -149.0500 238° Southwest 397 457 36,000  Level Oakland Oceanic (ODAPS)
02:38PM 27.3194 -149.0412 238° Southwest 397 457 36,000  Level FlightAware Transoceanic
02:39PM 27.2609 -149.1480 238° Southwest 397 457 36,000  Level FlightAware Transoceanic
02:40PM 27.2023 -149.2548 238° Southwest 397 457 36,000  Level FlightAware Transoceanic
02:41PM 27.1436 -149.3614 238° Southwest 397 457 36,000  Level FlightAware Transoceanic
02:42PM 27.0849 -149.4679 238° Southwest 397 457 36,000  Level FlightAware Transoceanic
02:43PM 27.0260 -149.5742 238° Southwest 397 457 36,000  Level FlightAware Transoceanic
02:44PM 26.9647 -149.6882 238° Southwest 397 457 36,000  Level FlightAware Transoceanic
02:45PM 26.9057 -149.7942 238° Southwest 397 457 36,000  Level FlightAware Transoceanic
02:46PM 26.8467 -149.9001 238° Southwest 397 457 36,000  Level FlightAware Transoceanic
02:47PM 26.7876 -150.0058 238° Southwest 397 457 36,000  Level FlightAware Transoceanic
02:48PM 26.7284 -150.1115 238° Southwest 397 457 36,000  Level FlightAware Transoceanic
02:49PM 26.6691 -150.2170 238° Southwest 397 457 36,000  Level FlightAware Transoceanic
02:50PM 26.6098 -150.3224 238° Southwest 397 457 36,000  Level FlightAware Transoceanic
02:51PM 26.5504 -150.4277 238° Southwest 397 457 36,000  Level FlightAware Transoceanic
02:51PM 26.5000 -150.5167 238° Southwest 397 457 36,000  Level Oakland Oceanic (ODAPS)
02:52PM 26.4909 -150.5330 238° Southwest 397 457 36,000  Level FlightAware Transoceanic
02:53PM 26.4313 -150.6381 238° Southwest 397 457 36,000  Level FlightAware Transoceanic
02:54PM 26.3717 -150.7431 238° Southwest 397 457 36,000  Level FlightAware Transoceanic
02:55PM 26.3120 -150.8479 238° Southwest 397 457 36,000  Level FlightAware Transoceanic
02:56PM 26.2522 -150.9527 237° Southwest 397 457 36,000  Level FlightAware Transoceanic
02:57PM 26.1923 -151.0574 237° Southwest 397 457 36,000  Level FlightAware Transoceanic
02:58PM 26.1400 -151.1484 237° Southwest 397 457 36,000  Level FlightAware Transoceanic
02:59PM 26.0797 -151.2534 237° Southwest 397 457 36,000  Level FlightAware Transoceanic
03:00PM 26.0194 -151.3582 237° Southwest 397 457 36,000  Level FlightAware Transoceanic
03:01PM 25.9589 -151.4629 237° Southwest 397 457 36,000  Level FlightAware Transoceanic
03:02PM 25.8984 -151.5675 237° Southwest 397 457 36,000  Level FlightAware Transoceanic
03:03PM 25.8379 -151.6719 237° Southwest 397 457 36,000  Level FlightAware Transoceanic
03:04PM 25.7772 -151.7763 237° Southwest 397 457 36,000  Level FlightAware Transoceanic
03:05PM 25.7165 -151.8806 237° Southwest 397 457 36,000  Level FlightAware Transoceanic
03:05PM 25.6667 -151.9500 237° Southwest 397 457 36,000  Level Oakland Oceanic (ODAPS)
03:06PM 25.6557 -151.9848 237° Southwest 397 457 36,000  Level FlightAware Transoceanic
03:07PM 25.5948 -152.0888 237° Southwest 397 457 36,000  Level FlightAware Transoceanic
03:08PM 25.5339 -152.1928 237° Southwest 397 457 36,000  Level FlightAware Transoceanic
03:09PM 25.4729 -152.2966 237° Southwest 397 457 36,000  Level FlightAware Transoceanic
03:10PM 25.4118 -152.4004 237° Southwest 397 457 36,000  Level FlightAware Transoceanic
03:11PM 25.3506 -152.5040 237° Southwest 397 457 36,000  Level FlightAware Transoceanic
03:12PM 25.2545 -152.6554 237° Southwest 397 457 36,000  Level FlightAware Transoceanic
03:13PM 25.1953 -152.7558 237° Southwest 397 457 36,000  Level FlightAware Transoceanic
03:14PM 25.1361 -152.8561 237° Southwest 397 457 36,000  Level FlightAware Transoceanic
03:15PM 25.0768 -152.9563 237° Southwest 397 457 36,000  Level FlightAware Transoceanic
03:16PM 25.0175 -153.0564 237° Southwest 397 457 36,000  Level FlightAware Transoceanic
03:17PM 24.9580 -153.1564 237° Southwest 397 457 36,000  Level FlightAware Transoceanic
03:18PM 24.8985 -153.2563 237° Southwest 397 457 36,000  Level FlightAware Transoceanic
03:19PM 24.8390 -153.3561 237° Southwest 397 457 36,000  Level FlightAware Transoceanic
03:19PM 24.8333 -153.3833 236° Southwest 393 452 36,000  Level Oakland Oceanic (ODAPS)
03:20PM 24.7794 -153.4558 237° Southwest 397 457 36,000  Level FlightAware Transoceanic
03:21PM 24.7197 -153.5554 237° Southwest 397 457 36,000  Level FlightAware Transoceanic
03:22PM 24.6599 -153.6549 237° Southwest 397 457 36,000  Level FlightAware Transoceanic
03:23PM 24.6001 -153.7543 236° Southwest 397 457 36,000  Level FlightAware Transoceanic
03:24PM 24.5402 -153.8537 236° Southwest 397 457 36,000  Level FlightAware Transoceanic
03:25PM 24.4783 -153.9619 236° Southwest 393 452 36,000  Level FlightAware Transoceanic
03:26PM 24.4189 -154.0580 236° Southwest 393 452 36,000  Level FlightAware Transoceanic
03:27PM 24.3595 -154.1541 236° Southwest 393 452 36,000  Level FlightAware Transoceanic
03:27PM 24.3500 -154.1333 236° Southwest 390 449 36,000  Level Honolulu Center
03:28PM 24.3000 -154.2500 236° Southwest 393 452 36,000  Level FlightAware Transoceanic
03:28PM 24.3000 -154.2333 241° Southwest 390 449 36,000  Level Honolulu Center
03:29PM 24.2414 -154.3454 236° Southwest 393 452 36,000  Level FlightAware Transoceanic
03:29PM 24.2333 -154.3333 234° Southwest 390 449 36,000  Level Honolulu Center
03:30PM 24.1827 -154.4407 236° Southwest 393 452 36,000  Level FlightAware Transoceanic
03:30PM 24.1667 -154.4333 234° Southwest 390 449 36,000  Level Honolulu Center
03:31PM 24.1239 -154.5359 236° Southwest 393 452 36,000  Level FlightAware Transoceanic
03:31PM 24.1167 -154.5333 241° Southwest 390 449 36,000  Level Honolulu Center
03:32PM 24.0651 -154.6310 236° Southwest 393 452 36,000  Level FlightAware Transoceanic
03:32PM 24.0500 -154.6333 234° Southwest 390 449 36,000  Level Honolulu Center
03:33PM 23.9667 -154.7167 222° Southwest 410 472 36,000  Level Honolulu Center
03:34PM 23.8667 -154.7833 211° Southwest 420 483 36,000  Level Honolulu Center
03:35PM 23.7667 -154.8333 205° Southwest 410 472 36,000  Level Honolulu Center
03:36PM 23.6667 -154.8833 205° Southwest 420 483 36,000  Level Honolulu Center
03:37PM 23.5667 -154.9500 211° Southwest 410 472 36,000  Level Honolulu Center
03:38PM 23.4500 -155.0000 201° Southwest 410 472 36,000  Level Honolulu Center
03:39PM 23.3500 -155.0500 205° Southwest 410 472 36,000  Level Honolulu Center
03:40PM 23.2500 -155.1167 211° Southwest 400 460 36,000  Level Honolulu Center
03:41PM 23.1500 -155.1667 205° Southwest 410 472 36,000  Level Honolulu Center
03:42PM 23.0500 -155.2167 205° Southwest 410 472 36,000  Level Honolulu Center
03:43PM 22.9500 -155.2833 212° Southwest 410 472 36,000  Level Honolulu Center
03:44PM 22.8500 -155.3333 205° Southwest 400 460 36,000  Level Honolulu Center
03:45PM 22.7500 -155.3833 205° Southwest 410 472 36,000  Level Honolulu Center
03:46PM 22.6500 -155.4500 212° Southwest 410 472 36,000  Level Honolulu Center
03:47PM 22.5333 -155.5000 202° Southwest 410 472 36,000 -960 Level Honolulu Center
03:48PM 22.4333 -155.5500 205° Southwest 410 472 34,100 -2,400 Descending Honolulu Center
03:49PM 22.3333 -155.6167 212° Southwest 420 483 31,300 -2,700 Descending Honolulu Center
03:50PM 22.2333 -155.6667 205° Southwest 410 472 28,800 -2,520 Descending Honolulu Center
03:51PM 22.1333 -155.7167 205° Southwest 400 460 26,300 -2,400 Descending Honolulu Center
03:52PM 22.0333 -155.7833 212° Southwest 380 437 24,000 -2,580 Descending Honolulu Center
03:53PM 21.9333 -155.8333 205° Southwest 390 449 21,100 -3,180 Descending Honolulu Center
03:54PM 21.8333 -155.8833 205° Southwest 390 449 17,700 -2,880 Descending Honolulu Center
03:55PM 21.7333 -155.9333 205° Southwest 380 437 15,400 -2,400 Descending Honolulu Center
03:56PM 21.6500 -155.9833 209° Southwest 370 426 12,900 -2,400 Descending Honolulu Center
03:57PM 21.5500 -156.0333 205° Southwest 360 414 10,600 -1,500 Descending Honolulu Center
03:58PM 21.4667 -156.0667 200° South 320 368 10,000 -720 Descending Honolulu Center
03:59PM 21.4000 -156.1167 215° Southwest 270 311 9,200 -1,320 Descending Honolulu Center
04:00PM 21.3333 -156.1500 205° Southwest 260 299 7,400 -1,620 Descending Honolulu Center
04:01PM 21.2667 -156.1833 205° Southwest 260 299 6,000 -1,320 Descending Honolulu Center
04:02PM 21.2000 -156.2167 205° Southwest 260 299 4,800 -1,260 Descending Honolulu Center
04:03PM 21.1500 -156.2500 212° Southwest 260 299 3,500 -900 Descending Honolulu Center
04:04PM 21.0833 -156.2833 205° Southwest 220 253 3,100 -540 Descending Honolulu Center
04:05PM 21.0333 -156.3167 212° Southwest 200 230 2,500 -600 Descending Honolulu Center
04:06PM 21.0000 -156.3500 223° Southwest 180 207 2,000 -540 Descending Honolulu Center